sensor_id;sensor_type;location;lat;lon;timestamp;P1;durP1;ratioP1;P2;durP2;ratioP2
18274;SDS011;19470;49.322;7.218;2023-07-20T00:00:16;2.72;;;1.67;;
18274;SDS011;19470;49.322;7.218;2023-07-20T00:02:43;3.65;;;1.90;;
18274;SDS011;19470;49.322;7.218;2023-07-20T00:05:09;3.47;;;1.90;;
18274;SDS011;19470;49.322;7.218;2023-07-20T00:07:37;7.13;;;1.67;;
18274;SDS011;19470;49.322;7.218;2023-07-20T00:10:04;2.70;;;1.90;;
18274;SDS011;19470;49.322;7.218;2023-07-20T00:12:31;2.78;;;1.80;;
18274;SDS011;19470;49.322;7.218;2023-07-20T00:14:58;6.47;;;1.83;;
18274;SDS011;19470;49.322;7.218;2023-07-20T00:17:25;3.33;;;1.90;;
18274;SDS011;19470;49.322;7.218;2023-07-20T00:19:51;3.88;;;1.70;;
18274;SDS011;19470;49.322;7.218;2023-07-20T00:22:18;3.40;;;2.17;;
18274;SDS011;19470;49.322;7.218;2023-07-20T00:24:45;7.57;;;2.05;;
18274;SDS011;19470;49.322;7.218;2023-07-20T00:27:12;2.58;;;1.95;;
18274;SDS011;19470;49.322;7.218;2023-07-20T00:29:38;3.40;;;1.75;;
18274;SDS011;19470;49.322;7.218;2023-07-20T00:32:05;3.40;;;2.30;;
18274;SDS011;19470;49.322;7.218;2023-07-20T00:34:32;5.30;;;2.20;;
18274;SDS011;19470;49.322;7.218;2023-07-20T00:36:59;3.88;;;2.10;;
18274;SDS011;19470;49.322;7.218;2023-07-20T00:39:25;5.93;;;1.98;;
18274;SDS011;19470;49.322;7.218;2023-07-20T00:41:53;3.40;;;1.63;;
18274;SDS011;19470;49.322;7.218;2023-07-20T00:44:20;4.00;;;2.20;;
18274;SDS011;19470;49.322;7.218;2023-07-20T00:46:47;3.47;;;1.83;;
18274;SDS011;19470;49.322;7.218;2023-07-20T00:49:13;5.13;;;1.90;;
18274;SDS011;19470;49.322;7.218;2023-07-20T00:51:40;3.42;;;1.92;;
18274;SDS011;19470;49.322;7.218;2023-07-20T00:54:07;3.38;;;2.00;;
18274;SDS011;19470;49.322;7.218;2023-07-20T00:56:34;8.48;;;2.22;;
18274;SDS011;19470;49.322;7.218;2023-07-20T00:59:02;5.70;;;2.30;;
18274;SDS011;19470;49.322;7.218;2023-07-20T01:01:29;4.65;;;2.20;;
18274;SDS011;19470;49.322;7.218;2023-07-20T01:03:56;5.57;;;2.55;;
18274;SDS011;19470;49.322;7.218;2023-07-20T01:06:24;4.50;;;2.33;;
18274;SDS011;19470;49.322;7.218;2023-07-20T01:08:57;2.72;;;1.90;;
18274;SDS011;19470;49.322;7.218;2023-07-20T01:11:35;4.32;;;2.22;;
18274;SDS011;19470;49.322;7.218;2023-07-20T01:14:06;3.40;;;2.10;;
18274;SDS011;19470;49.322;7.218;2023-07-20T01:16:33;6.82;;;2.47;;
18274;SDS011;19470;49.322;7.218;2023-07-20T01:19:00;3.13;;;2.13;;
18274;SDS011;19470;49.322;7.218;2023-07-20T01:21:28;4.95;;;2.00;;
18274;SDS011;19470;49.322;7.218;2023-07-20T01:30:08;5.30;;;2.42;;
18274;SDS011;19470;49.322;7.218;2023-07-20T01:32:43;3.00;;;2.10;;
18274;SDS011;19470;49.322;7.218;2023-07-20T01:35:13;4.65;;;2.13;;
18274;SDS011;19470;49.322;7.218;2023-07-20T01:37:42;3.20;;;2.20;;
18274;SDS011;19470;49.322;7.218;2023-07-20T01:40:11;4.90;;;2.42;;
18274;SDS011;19470;49.322;7.218;2023-07-20T01:42:43;5.32;;;1.90;;
18274;SDS011;19470;49.322;7.218;2023-07-20T01:45:10;4.10;;;2.15;;
18274;SDS011;19470;49.322;7.218;2023-07-20T01:47:37;2.83;;;2.10;;
18274;SDS011;19470;49.322;7.218;2023-07-20T01:50:06;3.88;;;2.20;;
18274;SDS011;19470;49.322;7.218;2023-07-20T01:52:33;4.68;;;2.20;;
18274;SDS011;19470;49.322;7.218;2023-07-20T01:55:00;3.80;;;2.42;;
18274;SDS011;19470;49.322;7.218;2023-07-20T01:57:26;7.45;;;2.45;;
18274;SDS011;19470;49.322;7.218;2023-07-20T01:59:53;7.32;;;2.50;;
18274;SDS011;19470;49.322;7.218;2023-07-20T02:02:19;4.05;;;2.38;;
18274;SDS011;19470;49.322;7.218;2023-07-20T02:04:46;3.92;;;2.33;;
18274;SDS011;19470;49.322;7.218;2023-07-20T02:07:14;4.20;;;2.10;;
18274;SDS011;19470;49.322;7.218;2023-07-20T02:09:40;2.92;;;2.40;;
18274;SDS011;19470;49.322;7.218;2023-07-20T02:12:07;3.30;;;2.40;;
18274;SDS011;19470;49.322;7.218;2023-07-20T02:14:34;3.72;;;2.50;;
18274;SDS011;19470;49.322;7.218;2023-07-20T02:17:00;4.90;;;2.40;;
18274;SDS011;19470;49.322;7.218;2023-07-20T02:19:28;3.67;;;2.42;;
18274;SDS011;19470;49.322;7.218;2023-07-20T02:21:56;5.95;;;2.30;;
18274;SDS011;19470;49.322;7.218;2023-07-20T02:24:24;5.95;;;2.38;;
18274;SDS011;19470;49.322;7.218;2023-07-20T02:26:51;3.10;;;2.30;;
18274;SDS011;19470;49.322;7.218;2023-07-20T02:29:18;4.88;;;2.40;;
18274;SDS011;19470;49.322;7.218;2023-07-20T02:31:44;4.75;;;2.55;;
18274;SDS011;19470;49.322;7.218;2023-07-20T02:34:11;5.13;;;2.80;;
18274;SDS011;19470;49.322;7.218;2023-07-20T02:36:38;2.88;;;2.25;;
18274;SDS011;19470;49.322;7.218;2023-07-20T02:39:07;2.47;;;2.20;;
18274;SDS011;19470;49.322;7.218;2023-07-20T02:41:35;8.02;;;2.83;;
18274;SDS011;19470;49.322;7.218;2023-07-20T02:44:01;4.00;;;2.10;;
18274;SDS011;19470;49.322;7.218;2023-07-20T02:46:28;5.65;;;2.58;;
18274;SDS011;19470;49.322;7.218;2023-07-20T02:48:55;4.57;;;2.63;;
18274;SDS011;19470;49.322;7.218;2023-07-20T02:51:22;5.28;;;2.28;;
18274;SDS011;19470;49.322;7.218;2023-07-20T02:53:48;3.53;;;2.38;;
18274;SDS011;19470;49.322;7.218;2023-07-20T02:56:15;5.93;;;2.72;;
18274;SDS011;19470;49.322;7.218;2023-07-20T02:58:44;4.18;;;2.75;;
18274;SDS011;19470;49.322;7.218;2023-07-20T03:01:11;4.22;;;2.40;;
18274;SDS011;19470;49.322;7.218;2023-07-20T03:03:38;3.42;;;2.17;;
18274;SDS011;19470;49.322;7.218;2023-07-20T03:06:04;4.78;;;2.60;;
18274;SDS011;19470;49.322;7.218;2023-07-20T03:08:31;4.45;;;2.20;;
18274;SDS011;19470;49.322;7.218;2023-07-20T03:10:57;4.25;;;2.45;;
18274;SDS011;19470;49.322;7.218;2023-07-20T03:13:24;4.35;;;2.50;;
18274;SDS011;19470;49.322;7.218;2023-07-20T03:15:52;3.88;;;2.47;;
18274;SDS011;19470;49.322;7.218;2023-07-20T03:18:19;5.88;;;2.53;;
18274;SDS011;19470;49.322;7.218;2023-07-20T03:20:46;3.72;;;2.38;;
18274;SDS011;19470;49.322;7.218;2023-07-20T03:23:13;4.00;;;2.22;;
18274;SDS011;19470;49.322;7.218;2023-07-20T03:28:30;7.07;;;2.55;;
18274;SDS011;19470;49.322;7.218;2023-07-20T03:30:58;3.80;;;2.20;;
18274;SDS011;19470;49.322;7.218;2023-07-20T03:33:25;4.45;;;2.33;;
18274;SDS011;19470;49.322;7.218;2023-07-20T03:35:52;9.45;;;2.97;;
18274;SDS011;19470;49.322;7.218;2023-07-20T03:38:19;6.10;;;2.50;;
18274;SDS011;19470;49.322;7.218;2023-07-20T03:40:49;5.38;;;2.40;;
18274;SDS011;19470;49.322;7.218;2023-07-20T03:43:16;5.70;;;3.00;;
18274;SDS011;19470;49.322;7.218;2023-07-20T03:45:43;4.00;;;2.50;;
18274;SDS011;19470;49.322;7.218;2023-07-20T03:48:11;5.32;;;2.60;;
18274;SDS011;19470;49.322;7.218;2023-07-20T03:50:38;5.28;;;2.92;;
18274;SDS011;19470;49.322;7.218;2023-07-20T03:53:04;5.85;;;2.80;;
18274;SDS011;19470;49.322;7.218;2023-07-20T03:55:31;5.43;;;2.60;;
18274;SDS011;19470;49.322;7.218;2023-07-20T03:57:58;5.85;;;2.97;;
18274;SDS011;19470;49.322;7.218;2023-07-20T04:00:24;5.35;;;2.85;;
18274;SDS011;19470;49.322;7.218;2023-07-20T04:02:51;5.68;;;2.80;;
18274;SDS011;19470;49.322;7.218;2023-07-20T04:05:19;4.05;;;2.63;;
18274;SDS011;19470;49.322;7.218;2023-07-20T04:07:46;3.40;;;2.70;;
18274;SDS011;19470;49.322;7.218;2023-07-20T04:10:12;5.43;;;2.63;;
18274;SDS011;19470;49.322;7.218;2023-07-20T04:12:39;4.20;;;2.85;;
18274;SDS011;19470;49.322;7.218;2023-07-20T04:15:06;6.22;;;2.90;;
18274;SDS011;19470;49.322;7.218;2023-07-20T04:17:33;6.03;;;2.75;;
18274;SDS011;19470;49.322;7.218;2023-07-20T04:20:00;6.43;;;3.08;;
18274;SDS011;19470;49.322;7.218;2023-07-20T04:22:29;6.47;;;3.00;;
18274;SDS011;19470;49.322;7.218;2023-07-20T04:24:56;7.13;;;3.42;;
18274;SDS011;19470;49.322;7.218;2023-07-20T04:27:22;7.13;;;3.05;;
18274;SDS011;19470;49.322;7.218;2023-07-20T04:29:49;11.48;;;3.10;;
18274;SDS011;19470;49.322;7.218;2023-07-20T04:32:16;8.73;;;3.53;;
18274;SDS011;19470;49.322;7.218;2023-07-20T04:34:42;6.07;;;3.08;;
18274;SDS011;19470;49.322;7.218;2023-07-20T04:37:09;4.78;;;3.42;;
18274;SDS011;19470;49.322;7.218;2023-07-20T04:39:37;8.82;;;4.10;;
18274;SDS011;19470;49.322;7.218;2023-07-20T04:42:06;6.93;;;3.30;;
18274;SDS011;19470;49.322;7.218;2023-07-20T04:44:33;6.95;;;3.35;;
18274;SDS011;19470;49.322;7.218;2023-07-20T04:46:59;6.70;;;2.75;;
18274;SDS011;19470;49.322;7.218;2023-07-20T04:49:26;7.53;;;3.08;;
18274;SDS011;19470;49.322;7.218;2023-07-20T04:51:53;5.80;;;3.13;;
18274;SDS011;19470;49.322;7.218;2023-07-20T04:54:19;6.80;;;2.97;;
18274;SDS011;19470;49.322;7.218;2023-07-20T04:56:47;5.20;;;3.10;;
18274;SDS011;19470;49.322;7.218;2023-07-20T04:59:14;3.80;;;3.03;;
18274;SDS011;19470;49.322;7.218;2023-07-20T05:01:40;5.93;;;2.83;;
18274;SDS011;19470;49.322;7.218;2023-07-20T05:04:07;7.53;;;3.47;;
18274;SDS011;19470;49.322;7.218;2023-07-20T05:06:33;6.35;;;3.10;;
18274;SDS011;19470;49.322;7.218;2023-07-20T05:09:00;6.18;;;2.83;;
18274;SDS011;19470;49.322;7.218;2023-07-20T05:11:27;5.40;;;3.03;;
18274;SDS011;19470;49.322;7.218;2023-07-20T05:13:55;6.00;;;3.05;;
18274;SDS011;19470;49.322;7.218;2023-07-20T05:16:21;6.75;;;3.47;;
18274;SDS011;19470;49.322;7.218;2023-07-20T05:18:48;12.05;;;3.22;;
18274;SDS011;19470;49.322;7.218;2023-07-20T05:21:14;10.05;;;3.30;;
18274;SDS011;19470;49.322;7.218;2023-07-20T05:23:41;4.90;;;2.92;;
18274;SDS011;19470;49.322;7.218;2023-07-20T05:26:07;8.73;;;3.30;;
18274;SDS011;19470;49.322;7.218;2023-07-20T05:28:34;5.68;;;2.85;;
18274;SDS011;19470;49.322;7.218;2023-07-20T05:31:03;7.15;;;3.10;;
18274;SDS011;19470;49.322;7.218;2023-07-20T05:33:30;8.30;;;3.30;;
18274;SDS011;19470;49.322;7.218;2023-07-20T05:35:55;6.38;;;3.45;;
18274;SDS011;19470;49.322;7.218;2023-07-20T05:38:22;5.80;;;2.65;;
18274;SDS011;19470;49.322;7.218;2023-07-20T05:40:49;5.38;;;2.42;;
18274;SDS011;19470;49.322;7.218;2023-07-20T05:43:15;9.98;;;2.80;;
18274;SDS011;19470;49.322;7.218;2023-07-20T05:45:42;9.35;;;3.55;;
18274;SDS011;19470;49.322;7.218;2023-07-20T05:48:09;6.55;;;3.33;;
18274;SDS011;19470;49.322;7.218;2023-07-20T05:50:38;5.78;;;3.15;;
18274;SDS011;19470;49.322;7.218;2023-07-20T05:53:07;9.73;;;3.70;;
18274;SDS011;19470;49.322;7.218;2023-07-20T05:55:34;6.05;;;3.13;;
18274;SDS011;19470;49.322;7.218;2023-07-20T05:58:00;8.45;;;3.15;;
18274;SDS011;19470;49.322;7.218;2023-07-20T06:00:27;10.38;;;3.17;;
18274;SDS011;19470;49.322;7.218;2023-07-20T06:02:53;11.57;;;3.67;;
18274;SDS011;19470;49.322;7.218;2023-07-20T06:05:21;10.52;;;3.92;;
18274;SDS011;19470;49.322;7.218;2023-07-20T06:07:48;9.55;;;3.88;;
18274;SDS011;19470;49.322;7.218;2023-07-20T06:10:15;7.05;;;4.00;;
18274;SDS011;19470;49.322;7.218;2023-07-20T06:12:41;9.15;;;3.75;;
18274;SDS011;19470;49.322;7.218;2023-07-20T06:15:23;8.43;;;3.33;;
18274;SDS011;19470;49.322;7.218;2023-07-20T06:17:51;9.60;;;3.60;;
18274;SDS011;19470;49.322;7.218;2023-07-20T06:20:19;8.73;;;3.55;;
18274;SDS011;19470;49.322;7.218;2023-07-20T06:22:47;5.93;;;3.05;;
18274;SDS011;19470;49.322;7.218;2023-07-20T06:25:13;8.43;;;3.42;;
18274;SDS011;19470;49.322;7.218;2023-07-20T06:27:40;9.88;;;3.90;;
18274;SDS011;19470;49.322;7.218;2023-07-20T06:30:07;7.88;;;3.17;;
18274;SDS011;19470;49.322;7.218;2023-07-20T06:32:34;8.63;;;3.35;;
18274;SDS011;19470;49.322;7.218;2023-07-20T06:35:00;7.78;;;4.10;;
18274;SDS011;19470;49.322;7.218;2023-07-20T06:37:27;7.78;;;3.58;;
18274;SDS011;19470;49.322;7.218;2023-07-20T06:39:55;8.20;;;3.60;;
18274;SDS011;19470;49.322;7.218;2023-07-20T06:42:21;5.85;;;3.03;;
18274;SDS011;19470;49.322;7.218;2023-07-20T06:44:47;7.00;;;3.45;;
18274;SDS011;19470;49.322;7.218;2023-07-20T06:47:14;7.00;;;2.90;;
18274;SDS011;19470;49.322;7.218;2023-07-20T06:49:40;11.48;;;3.17;;
18274;SDS011;19470;49.322;7.218;2023-07-20T06:52:07;9.73;;;2.78;;
18274;SDS011;19470;49.322;7.218;2023-07-20T06:54:33;4.95;;;2.22;;
18274;SDS011;19470;49.322;7.218;2023-07-20T06:57:01;6.63;;;2.80;;
18274;SDS011;19470;49.322;7.218;2023-07-20T06:59:28;8.02;;;2.92;;
18274;SDS011;19470;49.322;7.218;2023-07-20T07:01:54;5.65;;;2.42;;
18274;SDS011;19470;49.322;7.218;2023-07-20T07:04:21;4.68;;;2.63;;
18274;SDS011;19470;49.322;7.218;2023-07-20T07:06:47;5.43;;;2.25;;
18274;SDS011;19470;49.322;7.218;2023-07-20T07:09:14;7.18;;;2.65;;
18274;SDS011;19470;49.322;7.218;2023-07-20T07:11:41;8.75;;;2.50;;
18274;SDS011;19470;49.322;7.218;2023-07-20T07:14:08;9.70;;;2.85;;
18274;SDS011;19470;49.322;7.218;2023-07-20T07:16:35;3.55;;;2.20;;
18274;SDS011;19470;49.322;7.218;2023-07-20T07:19:01;7.43;;;2.50;;
18274;SDS011;19470;49.322;7.218;2023-07-20T07:21:28;4.88;;;2.40;;
18274;SDS011;19470;49.322;7.218;2023-07-20T07:23:55;10.57;;;3.10;;
18274;SDS011;19470;49.322;7.218;2023-07-20T07:26:22;7.28;;;4.88;;
18274;SDS011;19470;49.322;7.218;2023-07-20T07:28:48;9.07;;;4.53;;
18274;SDS011;19470;49.322;7.218;2023-07-20T07:31:17;5.38;;;2.30;;
18274;SDS011;19470;49.322;7.218;2023-07-20T07:33:43;5.93;;;2.67;;
18274;SDS011;19470;49.322;7.218;2023-07-20T07:36:10;5.22;;;2.47;;
18274;SDS011;19470;49.322;7.218;2023-07-20T07:38:36;4.93;;;2.28;;
18274;SDS011;19470;49.322;7.218;2023-07-20T07:41:03;4.43;;;2.42;;
18274;SDS011;19470;49.322;7.218;2023-07-20T07:43:29;4.05;;;2.40;;
18274;SDS011;19470;49.322;7.218;2023-07-20T07:45:56;5.68;;;3.22;;
18274;SDS011;19470;49.322;7.218;2023-07-20T07:48:24;7.78;;;4.88;;
18274;SDS011;19470;49.322;7.218;2023-07-20T07:50:50;5.28;;;3.58;;
18274;SDS011;19470;49.322;7.218;2023-07-20T07:53:17;3.83;;;3.53;;
18274;SDS011;19470;49.322;7.218;2023-07-20T07:55:43;11.10;;;10.27;;
18274;SDS011;19470;49.322;7.218;2023-07-20T07:58:10;25.05;;;23.00;;
18274;SDS011;19470;49.322;7.218;2023-07-20T08:00:36;26.05;;;24.48;;
18274;SDS011;19470;49.322;7.218;2023-07-20T08:03:03;30.33;;;28.35;;
18274;SDS011;19470;49.322;7.218;2023-07-20T08:05:31;22.88;;;21.45;;
18274;SDS011;19470;49.322;7.218;2023-07-20T08:07:57;4.90;;;4.05;;
18274;SDS011;19470;49.322;7.218;2023-07-20T08:10:23;4.35;;;2.35;;
18274;SDS011;19470;49.322;7.218;2023-07-20T08:12:50;4.18;;;2.60;;
18274;SDS011;19470;49.322;7.218;2023-07-20T08:15:17;3.97;;;2.05;;
18274;SDS011;19470;49.322;7.218;2023-07-20T08:17:43;5.00;;;2.97;;
18274;SDS011;19470;49.322;7.218;2023-07-20T08:20:10;4.80;;;2.90;;
18274;SDS011;19470;49.322;7.218;2023-07-20T08:22:40;7.95;;;7.20;;
18274;SDS011;19470;49.322;7.218;2023-07-20T08:25:07;6.63;;;3.13;;
18274;SDS011;19470;49.322;7.218;2023-07-20T08:27:34;5.78;;;3.40;;
18274;SDS011;19470;49.322;7.218;2023-07-20T08:30:01;7.65;;;6.95;;
18274;SDS011;19470;49.322;7.218;2023-07-20T08:32:29;11.05;;;10.07;;
18274;SDS011;19470;49.322;7.218;2023-07-20T08:34:55;10.68;;;9.98;;
18274;SDS011;19470;49.322;7.218;2023-07-20T08:37:22;11.55;;;10.75;;
18274;SDS011;19470;49.322;7.218;2023-07-20T08:39:50;12.57;;;11.23;;
18274;SDS011;19470;49.322;7.218;2023-07-20T08:42:16;68.25;;;64.30;;
18274;SDS011;19470;49.322;7.218;2023-07-20T08:44:43;150.13;;;142.52;;
18274;SDS011;19470;49.322;7.218;2023-07-20T08:47:11;108.40;;;102.50;;
18274;SDS011;19470;49.322;7.218;2023-07-20T08:49:39;67.78;;;63.67;;
18274;SDS011;19470;49.322;7.218;2023-07-20T08:52:07;16.30;;;15.23;;
18274;SDS011;19470;49.322;7.218;2023-07-20T08:54:34;74.60;;;70.40;;
18274;SDS011;19470;49.322;7.218;2023-07-20T08:57:03;136.45;;;129.45;;
18274;SDS011;19470;49.322;7.218;2023-07-20T08:59:31;154.02;;;146.27;;
18274;SDS011;19470;49.322;7.218;2023-07-20T09:01:58;205.65;;;195.55;;
18274;SDS011;19470;49.322;7.218;2023-07-20T09:04:25;178.00;;;169.02;;
18274;SDS011;19470;49.322;7.218;2023-07-20T09:06:52;112.90;;;107.00;;
18274;SDS011;19470;49.322;7.218;2023-07-20T09:09:18;17.63;;;16.00;;
18274;SDS011;19470;49.322;7.218;2023-07-20T09:11:46;13.45;;;12.57;;
18274;SDS011;19470;49.322;7.218;2023-07-20T09:14:15;9.20;;;3.38;;
18274;SDS011;19470;49.322;7.218;2023-07-20T09:16:48;5.72;;;3.10;;
18274;SDS011;19470;49.322;7.218;2023-07-20T09:19:15;11.70;;;10.82;;
18274;SDS011;19470;49.322;7.218;2023-07-20T09:21:43;88.60;;;83.43;;
18274;SDS011;19470;49.322;7.218;2023-07-20T09:24:11;28.05;;;25.48;;
18274;SDS011;19470;49.322;7.218;2023-07-20T09:26:40;28.42;;;26.70;;
18274;SDS011;19470;49.322;7.218;2023-07-20T09:29:07;175.02;;;166.25;;
18274;SDS011;19470;49.322;7.218;2023-07-20T09:31:35;471.23;;;439.55;;
18274;SDS011;19470;49.322;7.218;2023-07-20T09:34:02;466.00;;;439.45;;
18274;SDS011;19470;49.322;7.218;2023-07-20T09:36:29;569.97;;;535.60;;
18274;SDS011;19470;49.322;7.218;2023-07-20T09:38:58;624.17;;;584.80;;
18274;SDS011;19470;49.322;7.218;2023-07-20T09:41:25;754.65;;;704.60;;
18274;SDS011;19470;49.322;7.218;2023-07-20T09:43:51;803.42;;;749.20;;
18274;SDS011;19470;49.322;7.218;2023-07-20T09:46:19;91.43;;;86.80;;
18274;SDS011;19470;49.322;7.218;2023-07-20T09:48:52;30.88;;;29.00;;
18274;SDS011;19470;49.322;7.218;2023-07-20T09:51:19;19.95;;;18.60;;
18274;SDS011;19470;49.322;7.218;2023-07-20T09:53:48;62.78;;;59.42;;
18274;SDS011;19470;49.322;7.218;2023-07-20T09:56:15;382.35;;;361.20;;
18274;SDS011;19470;49.322;7.218;2023-07-20T09:58:43;478.63;;;451.30;;
18274;SDS011;19470;49.322;7.218;2023-07-20T10:01:11;364.27;;;344.55;;
18274;SDS011;19470;49.322;7.218;2023-07-20T10:03:41;221.52;;;210.35;;
18274;SDS011;19470;49.322;7.218;2023-07-20T10:06:13;306.40;;;290.90;;
18274;SDS011;19470;49.322;7.218;2023-07-20T10:08:43;345.52;;;327.20;;
18274;SDS011;19470;49.322;7.218;2023-07-20T10:11:12;381.33;;;360.85;;
18274;SDS011;19470;49.322;7.218;2023-07-20T10:13:41;444.83;;;419.35;;
18274;SDS011;19470;49.322;7.218;2023-07-20T10:16:10;431.20;;;406.90;;
18274;SDS011;19470;49.322;7.218;2023-07-20T10:18:41;349.70;;;330.02;;
18274;SDS011;19470;49.322;7.218;2023-07-20T10:21:26;139.20;;;132.13;;
18274;SDS011;19470;49.322;7.218;2023-07-20T10:23:55;210.90;;;200.48;;
18274;SDS011;19470;49.322;7.218;2023-07-20T10:26:23;153.90;;;146.35;;
18274;SDS011;19470;49.322;7.218;2023-07-20T10:28:49;278.58;;;264.55;;
18274;SDS011;19470;49.322;7.218;2023-07-20T10:31:16;261.38;;;248.18;;
18274;SDS011;19470;49.322;7.218;2023-07-20T10:33:43;325.67;;;308.52;;
18274;SDS011;19470;49.322;7.218;2023-07-20T10:36:11;672.47;;;629.33;;
18274;SDS011;19470;49.322;7.218;2023-07-20T10:38:39;979.80;;;906.60;;
18274;SDS011;19470;49.322;7.218;2023-07-20T10:41:15;1108.13;;;999.90;;
18274;SDS011;19470;49.322;7.218;2023-07-20T10:43:42;1178.68;;;999.90;;
18274;SDS011;19470;49.322;7.218;2023-07-20T10:46:10;1269.30;;;999.90;;
18274;SDS011;19470;49.322;7.218;2023-07-20T10:48:45;1286.18;;;999.90;;
18274;SDS011;19470;49.322;7.218;2023-07-20T10:51:26;1268.03;;;999.90;;
18274;SDS011;19470;49.322;7.218;2023-07-20T10:53:55;1120.32;;;999.90;;
18274;SDS011;19470;49.322;7.218;2023-07-20T10:56:25;968.20;;;896.60;;
18274;SDS011;19470;49.322;7.218;2023-07-20T10:58:55;743.47;;;695.38;;
18274;SDS011;19470;49.322;7.218;2023-07-20T11:01:27;635.28;;;595.83;;
18274;SDS011;19470;49.322;7.218;2023-07-20T11:03:56;964.30;;;893.72;;
18274;SDS011;19470;49.322;7.218;2023-07-20T11:06:31;993.65;;;919.65;;
18274;SDS011;19470;49.322;7.218;2023-07-20T11:09:05;1036.05;;;955.25;;
18274;SDS011;19470;49.322;7.218;2023-07-20T11:11:36;1053.75;;;971.08;;
18274;SDS011;19470;49.322;7.218;2023-07-20T11:14:04;952.75;;;882.97;;
18274;SDS011;19470;49.322;7.218;2023-07-20T11:16:32;852.95;;;795.05;;
18274;SDS011;19470;49.322;7.218;2023-07-20T11:19:00;697.97;;;652.65;;
18274;SDS011;19470;49.322;7.218;2023-07-20T11:21:26;665.60;;;623.15;;
18274;SDS011;19470;49.322;7.218;2023-07-20T11:23:53;633.83;;;594.15;;
18274;SDS011;19470;49.322;7.218;2023-07-20T11:26:21;750.20;;;701.60;;
18274;SDS011;19470;49.322;7.218;2023-07-20T11:28:48;941.97;;;874.53;;
18274;SDS011;19470;49.322;7.218;2023-07-20T11:31:16;1134.90;;;999.90;;
18274;SDS011;19470;49.322;7.218;2023-07-20T11:33:43;1253.63;;;999.90;;
18274;SDS011;19470;49.322;7.218;2023-07-20T11:36:10;1187.43;;;999.90;;
18274;SDS011;19470;49.322;7.218;2023-07-20T11:38:36;1039.40;;;955.88;;
18274;SDS011;19470;49.322;7.218;2023-07-20T11:41:04;1229.95;;;999.90;;
18274;SDS011;19470;49.322;7.218;2023-07-20T11:43:32;1999.90;;;999.90;;
18274;SDS011;19470;49.322;7.218;2023-07-20T11:45:59;1999.90;;;999.90;;
18274;SDS011;19470;49.322;7.218;2023-07-20T11:48:26;1999.90;;;999.90;;
18274;SDS011;19470;49.322;7.218;2023-07-20T11:50:52;1999.90;;;999.90;;
18274;SDS011;19470;49.322;7.218;2023-07-20T11:53:18;1999.90;;;999.90;;
18274;SDS011;19470;49.322;7.218;2023-07-20T11:55:46;1999.90;;;999.90;;
18274;SDS011;19470;49.322;7.218;2023-07-20T11:58:13;1999.90;;;999.90;;
18274;SDS011;19470;49.322;7.218;2023-07-20T12:00:43;1267.85;;;999.90;;
18274;SDS011;19470;49.322;7.218;2023-07-20T12:03:11;1245.68;;;999.90;;
18274;SDS011;19470;49.322;7.218;2023-07-20T12:05:38;1236.75;;;999.90;;
18274;SDS011;19470;49.322;7.218;2023-07-20T12:08:05;1301.20;;;999.90;;
18274;SDS011;19470;49.322;7.218;2023-07-20T12:10:32;1244.97;;;999.90;;
18274;SDS011;19470;49.322;7.218;2023-07-20T12:13:01;1271.18;;;999.90;;
18274;SDS011;19470;49.322;7.218;2023-07-20T12:15:28;1275.55;;;999.90;;
18274;SDS011;19470;49.322;7.218;2023-07-20T12:17:58;1286.70;;;999.90;;
18274;SDS011;19470;49.322;7.218;2023-07-20T12:20:28;1165.50;;;999.90;;
18274;SDS011;19470;49.322;7.218;2023-07-20T12:22:56;1177.30;;;999.90;;
18274;SDS011;19470;49.322;7.218;2023-07-20T12:25:31;1239.32;;;999.90;;
18274;SDS011;19470;49.322;7.218;2023-07-20T12:28:00;1999.90;;;999.90;;
18274;SDS011;19470;49.322;7.218;2023-07-20T12:30:27;1999.90;;;999.90;;
18274;SDS011;19470;49.322;7.218;2023-07-20T12:32:53;1999.90;;;999.90;;
18274;SDS011;19470;49.322;7.218;2023-07-20T12:35:21;1999.90;;;999.90;;
18274;SDS011;19470;49.322;7.218;2023-07-20T12:37:48;1999.90;;;999.90;;
18274;SDS011;19470;49.322;7.218;2023-07-20T12:40:16;1999.90;;;999.90;;
18274;SDS011;19470;49.322;7.218;2023-07-20T12:42:43;1999.90;;;999.90;;
18274;SDS011;19470;49.322;7.218;2023-07-20T12:45:10;1999.90;;;999.90;;
18274;SDS011;19470;49.322;7.218;2023-07-20T12:47:45;1287.63;;;999.90;;
18274;SDS011;19470;49.322;7.218;2023-07-20T12:50:12;1246.15;;;999.90;;
18274;SDS011;19470;49.322;7.218;2023-07-20T12:52:40;1228.25;;;999.90;;
18274;SDS011;19470;49.322;7.218;2023-07-20T12:55:07;1999.90;;;999.90;;
18274;SDS011;19470;49.322;7.218;2023-07-20T12:57:35;1644.35;;;999.90;;
18274;SDS011;19470;49.322;7.218;2023-07-20T13:00:03;1249.32;;;999.90;;
18274;SDS011;19470;49.322;7.218;2023-07-20T13:02:32;1033.13;;;952.10;;
18274;SDS011;19470;49.322;7.218;2023-07-20T13:04:59;951.58;;;882.70;;
18274;SDS011;19470;49.322;7.218;2023-07-20T13:07:29;713.25;;;667.20;;
18274;SDS011;19470;49.322;7.218;2023-07-20T13:09:58;613.33;;;575.17;;
18274;SDS011;19470;49.322;7.218;2023-07-20T13:12:25;652.85;;;611.33;;
18274;SDS011;19470;49.322;7.218;2023-07-20T13:14:52;780.92;;;729.05;;
18274;SDS011;19470;49.322;7.218;2023-07-20T13:17:19;822.05;;;766.70;;
18274;SDS011;19470;49.322;7.218;2023-07-20T13:19:46;945.88;;;876.45;;
18274;SDS011;19470;49.322;7.218;2023-07-20T13:22:12;955.97;;;885.50;;
18274;SDS011;19470;49.322;7.218;2023-07-20T13:24:39;902.08;;;838.08;;
18274;SDS011;19470;49.322;7.218;2023-07-20T13:27:07;912.13;;;846.47;;
18274;SDS011;19470;49.322;7.218;2023-07-20T13:29:34;928.95;;;862.15;;
18274;SDS011;19470;49.322;7.218;2023-07-20T13:32:00;830.67;;;774.45;;
18274;SDS011;19470;49.322;7.218;2023-07-20T13:34:28;892.45;;;830.00;;
18274;SDS011;19470;49.322;7.218;2023-07-20T13:36:54;903.85;;;839.30;;
18274;SDS011;19470;49.322;7.218;2023-07-20T13:39:21;919.28;;;853.53;;
18274;SDS011;19470;49.322;7.218;2023-07-20T13:41:49;781.63;;;728.92;;
18274;SDS011;19470;49.322;7.218;2023-07-20T13:44:17;705.67;;;660.15;;
18274;SDS011;19470;49.322;7.218;2023-07-20T13:46:45;609.78;;;572.55;;
18274;SDS011;19470;49.322;7.218;2023-07-20T13:49:12;506.67;;;477.38;;
18274;SDS011;19470;49.322;7.218;2023-07-20T13:51:38;605.83;;;568.00;;
18274;SDS011;19470;49.322;7.218;2023-07-20T13:54:05;649.70;;;608.33;;
18274;SDS011;19470;49.322;7.218;2023-07-20T13:56:32;611.80;;;573.15;;
18274;SDS011;19470;49.322;7.218;2023-07-20T13:58:58;758.03;;;708.33;;
18274;SDS011;19470;49.322;7.218;2023-07-20T14:01:26;738.42;;;689.92;;
18274;SDS011;19470;49.322;7.218;2023-07-20T14:03:54;803.92;;;749.88;;
18274;SDS011;19470;49.322;7.218;2023-07-20T14:06:21;831.28;;;775.08;;
18274;SDS011;19470;49.322;7.218;2023-07-20T14:08:48;773.80;;;722.92;;
18274;SDS011;19470;49.322;7.218;2023-07-20T14:11:15;659.05;;;616.88;;
18274;SDS011;19470;49.322;7.218;2023-07-20T14:13:42;571.63;;;536.75;;
18274;SDS011;19470;49.322;7.218;2023-07-20T14:16:09;465.23;;;438.95;;
18274;SDS011;19470;49.322;7.218;2023-07-20T14:18:37;510.92;;;481.02;;
18274;SDS011;19470;49.322;7.218;2023-07-20T14:21:03;428.13;;;404.20;;
18274;SDS011;19470;49.322;7.218;2023-07-20T14:23:31;377.90;;;357.75;;
18274;SDS011;19470;49.322;7.218;2023-07-20T14:25:58;326.33;;;309.10;;
18274;SDS011;19470;49.322;7.218;2023-07-20T14:28:24;327.27;;;306.77;;
18274;SDS011;19470;49.322;7.218;2023-07-20T14:30:51;394.05;;;372.67;;
18274;SDS011;19470;49.322;7.218;2023-07-20T14:33:19;579.13;;;542.40;;
18274;SDS011;19470;49.322;7.218;2023-07-20T14:35:48;525.83;;;495.45;;